| time (UTC) | temp F | wind direction | speed MPH | gust MPH | rain 1hr in | rain 24hr in | rain mn in | humidity % | barometer mb |
| 20260509162216 | 91 | 339 | 3.0 | 5.0 | 0.00 | 0.00 | 0.00 | 14 | 1008.2 |
| 20260509161217 | 90 | 266 | 0.0 | 1.0 | 0.00 | 0.00 | 0.00 | 18 | 1008.1 |
| 20260509160217 | 88 | 0.0 | 0.0 | 0.00 | 0.00 | 0.00 | 19 | 1008.2 | |
| 20260509155217 | 88 | 0.0 | 0.0 | 0.00 | 0.00 | 0.00 | 19 | 1008.2 | |
| 20260509154217 | 87 | 253 | 0.0 | 0.0 | 0.00 | 0.00 | 0.00 | 19 | 1008.2 |
| 20260509153917 | 86 | 0.0 | 0.0 | 0.00 | 0.00 | 0.00 | 19 | 1008.2 | |
| 20260509152917 | 85 | 0.0 | 0.0 | 0.00 | 0.00 | 0.00 | 20 | 1008.2 | |
| 20260509151917 | 84 | 0.0 | 0.0 | 0.00 | 0.00 | 0.00 | 21 | 1008.2 | |
| 20260509150917 | 84 | 283 | 0.0 | 1.0 | 0.00 | 0.00 | 0.00 | 22 | 1008.3 |
| 20260509145916 | 82 | 0.0 | 0.0 | 0.00 | 0.00 | 0.00 | 23 | 1008.3 | |
| 20260509144917 | 81 | 0.0 | 0.0 | 0.00 | 0.00 | 0.00 | 23 | 1008.2 | |
| 20260509143917 | 80 | 0.0 | 0.0 | 0.00 | 0.00 | 0.00 | 23 | 1008.2 | |
| 20260509142917 | 78 | 208 | 0.0 | 0.0 | 0.00 | 0.00 | 0.00 | 25 | 1008.2 |
| 20260509141916 | 76 | 0.0 | 0.0 | 0.00 | 0.00 | 0.00 | 27 | 1008.1 | |
| 20260509140917 | 76 | 0.0 | 0.0 | 0.00 | 0.00 | 0.00 | 27 | 1008.1 | |
| 20260509135917 | 73 | 158 | 0.0 | 0.0 | 0.00 | 0.00 | 0.00 | 28 | 1008.0 |
| 20260509134916 | 72 | 139 | 0.0 | 1.0 | 0.00 | 0.00 | 0.00 | 32 | 1008.0 |
| 20260509133917 | 71 | 0.0 | 0.0 | 0.00 | 0.00 | 0.00 | 34 | 1008.0 | |
| 20260509132917 | 69 | 115 | 0.0 | 0.0 | 0.00 | 0.00 | 0.00 | 35 | 1007.9 |
| 20260509131918 | 69 | 0.0 | 0.0 | 0.00 | 0.00 | 0.00 | 35 | 1007.9 | |
| 20260509130917 | 68 | 106 | 0.0 | 0.0 | 0.00 | 0.00 | 0.00 | 38 | 1007.7 |
| 20260509125917 | 68 | 0.0 | 0.0 | 0.00 | 0.00 | 0.00 | 38 | 1007.7 | |
| 20260509124916 | 67 | 115 | 0.0 | 0.0 | 0.00 | 0.00 | 0.00 | 38 | 1007.6 |
| 20260509123917 | 67 | 107 | 0.0 | 1.0 | 0.00 | 0.00 | 0.00 | 39 | 1007.6 |
| 20260509122917 | 68 | 0.0 | 0.0 | 0.00 | 0.00 | 0.00 | 38 | 1007.4 | |
| 20260509121917 | 68 | 0.0 | 0.0 | 0.00 | 0.00 | 0.00 | 37 | 1007.3 | |
| 20260509120917 | 68 | 0.0 | 0.0 | 0.00 | 0.00 | 0.00 | 39 | 1007.3 | |
| 20260509115916 | 69 | 71 | 2.0 | 2.0 | 0.00 | 0.00 | 0.00 | 40 | 1007.2 |
| 20260509114917 | 69 | 0.0 | 0.0 | 0.00 | 0.00 | 0.00 | 37 | 1007.2 | |
| 20260509113917 | 70 | 0.0 | 0.0 | 0.00 | 0.00 | 0.00 | 34 | 1007.2 | |
| 20260509112917 | 70 | 0.0 | 0.0 | 0.00 | 0.00 | 0.00 | 33 | 1007.2 | |
| 20260509111916 | 71 | 0.0 | 0.0 | 0.00 | 0.00 | 0.00 | 31 | 1007.1 | |
| 20260509110917 | 70 | 0.0 | 0.0 | 0.00 | 0.00 | 0.00 | 31 | 1007.1 | |
| 20260509105916 | 71 | 193 | 1.0 | 1.0 | 0.00 | 0.00 | 0.00 | 29 | 1007.1 |
| 20260509104917 | 71 | 237 | 1.0 | 2.0 | 0.00 | 0.00 | 0.00 | 29 | 1007.1 |
| 20260509103916 | 70 | 208 | 2.0 | 2.0 | 0.00 | 0.00 | 0.00 | 30 | 1007.0 |
| 20260509102916 | 71 | 189 | 1.0 | 2.0 | 0.00 | 0.00 | 0.00 | 30 | 1007.1 |
| 20260509101917 | 71 | 0.0 | 0.0 | 0.00 | 0.00 | 0.00 | 31 | 1007.0 | |
| 20260509100917 | 71 | 206 | 2.0 | 3.0 | 0.00 | 0.00 | 0.00 | 32 | 1007.1 |
| 20260509095917 | 71 | 205 | 2.0 | 2.0 | 0.00 | 0.00 | 0.00 | 33 | 1007.0 |
| 20260509095416 | 71 | 199 | 3.0 | 4.0 | 0.00 | 0.00 | 0.00 | 34 | 1007.0 |
| 20260509094416 | 71 | 208 | 2.0 | 2.0 | 0.00 | 0.00 | 0.00 | 34 | 1007.0 |
| 20260509093416 | 71 | 190 | 3.0 | 4.0 | 0.00 | 0.00 | 0.00 | 36 | 1007.0 |
| 20260509092417 | 71 | 180 | 3.0 | 4.0 | 0.00 | 0.00 | 0.00 | 36 | 1007.1 |
| 20260509091416 | 71 | 190 | 1.0 | 2.0 | 0.00 | 0.00 | 0.00 | 36 | 1007.1 |
| 20260509090416 | 72 | 176 | 3.0 | 4.0 | 0.00 | 0.00 | 0.00 | 36 | 1007.2 |
| 20260509085417 | 72 | 188 | 3.0 | 4.0 | 0.00 | 0.00 | 0.00 | 35 | 1007.3 |
| 20260509084417 | 73 | 180 | 5.0 | 6.0 | 0.00 | 0.00 | 0.00 | 34 | 1007.4 |
| 20260509083416 | 73 | 174 | 3.0 | 4.0 | 0.00 | 0.00 | 0.00 | 35 | 1007.4 |
| 20260509082416 | 74 | 172 | 2.0 | 3.0 | 0.00 | 0.00 | 0.00 | 35 | 1007.5 |
| 20260509081417 | 74 | 178 | 4.0 | 5.0 | 0.00 | 0.00 | 0.00 | 35 | 1007.6 |
| 20260509080416 | 73 | 194 | 4.0 | 4.0 | 0.00 | 0.00 | 0.00 | 36 | 1007.6 |
| 20260509075417 | 75 | 197 | 3.0 | 4.0 | 0.00 | 0.00 | 0.00 | 35 | 1007.7 |
| 20260509075017 | 75 | 214 | 3.0 | 4.0 | 0.00 | 0.00 | 0.00 | 35 | 1007.7 |
| 20260509074016 | 77 | 212 | 3.0 | 4.0 | 0.00 | 0.00 | 0.00 | 34 | 1007.8 |
| 20260509073017 | 77 | 219 | 2.0 | 4.0 | 0.00 | 0.00 | 0.00 | 33 | 1007.8 |
| 20260509071918 | 78 | 226 | 4.0 | 5.0 | 0.00 | 0.00 | 0.00 | 32 | 1008.0 |
| 20260509070917 | 80 | 235 | 5.0 | 6.0 | 0.00 | 0.00 | 0.00 | 29 | 1008.0 |
| 20260509065916 | 80 | 238 | 5.0 | 6.0 | 0.00 | 0.00 | 0.00 | 29 | 1007.9 |
| 20260509064917 | 79 | 221 | 3.0 | 4.0 | 0.00 | 0.00 | 0.00 | 30 | 1008.0 |
| 20260509063916 | 79 | 258 | 3.0 | 4.0 | 0.00 | 0.00 | 0.00 | 31 | 1008.1 |
| 20260509062917 | 79 | 223 | 3.0 | 4.0 | 0.00 | 0.00 | 0.00 | 31 | 1008.1 |
| 20260509061917 | 80 | 231 | 3.0 | 4.0 | 0.00 | 0.00 | 0.00 | 30 | 1008.2 |
| 20260509060916 | 81 | 240 | 4.0 | 6.0 | 0.00 | 0.00 | 0.00 | 29 | 1008.1 |
| 20260509055917 | 81 | 241 | 3.0 | 4.0 | 0.00 | 0.00 | 0.00 | 28 | 1008.0 |
| 20260509054917 | 81 | 249 | 5.0 | 6.0 | 0.00 | 0.00 | 0.00 | 28 | 1008.0 |
| 20260509053916 | 82 | 246 | 3.0 | 5.0 | 0.00 | 0.00 | 0.00 | 28 | 1007.9 |
| 20260509052917 | 82 | 175 | 4.0 | 5.0 | 0.00 | 0.00 | 0.00 | 27 | 1007.8 |
| 20260509051916 | 83 | 151 | 7.0 | 9.0 | 0.00 | 0.00 | 0.00 | 28 | 1007.8 |
| 20260509050917 | 83 | 144 | 7.0 | 8.0 | 0.00 | 0.00 | 0.00 | 28 | 1007.9 |
| 20260509045916 | 83 | 212 | 0.0 | 1.0 | 0.00 | 0.00 | 0.00 | 27 | 1008.1 |
| 20260509044917 | 84 | 308 | 2.0 | 2.0 | 0.00 | 0.00 | 0.00 | 26 | 1008.3 |
| 20260509043916 | 85 | 273 | 5.0 | 8.0 | 0.00 | 0.00 | 0.00 | 25 | 1008.1 |
| 20260509042917 | 85 | 154 | 5.0 | 7.0 | 0.00 | 0.00 | 0.00 | 25 | 1007.6 |
| 20260509041917 | 85 | 209 | 3.0 | 4.0 | 0.00 | 0.00 | 0.00 | 23 | 1007.3 |
| 20260509040917 | 86 | 190 | 3.0 | 6.0 | 0.00 | 0.00 | 0.00 | 22 | 1006.9 |
| 20260509035917 | 86 | 185 | 4.0 | 6.0 | 0.00 | 0.00 | 0.00 | 22 | 1006.6 |
| 20260509034916 | 87 | 201 | 6.0 | 8.0 | 0.00 | 0.00 | 0.00 | 21 | 1006.4 |
| 20260509033917 | 88 | 197 | 8.0 | 11.0 | 0.00 | 0.00 | 0.00 | 22 | 1006.3 |
| 20260509033317 | 89 | 202 | 7.0 | 11.0 | 0.00 | 0.00 | 0.00 | 22 | 1006.3 |
| 20260509032316 | 89 | 212 | 5.0 | 8.0 | 0.00 | 0.00 | 0.00 | 25 | 1006.1 |
| 20260509031317 | 90 | 213 | 5.0 | 8.0 | 0.00 | 0.00 | 0.00 | 23 | 1006.0 |
| 20260509030316 | 92 | 213 | 8.0 | 10.0 | 0.00 | 0.00 | 0.00 | 21 | 1005.9 |
| 20260509025317 | 93 | 219 | 9.0 | 11.0 | 0.00 | 0.00 | 0.00 | 16 | 1005.6 |
| 20260509024316 | 94 | 0.0 | 0.0 | 0.00 | 0.00 | 0.00 | 15 | 1005.4 | |
| 20260509023317 | 95 | 0.0 | 0.0 | 0.00 | 0.00 | 0.00 | 15 | 1005.3 | |
| 20260509022316 | 96 | 0.0 | 0.0 | 0.00 | 0.00 | 0.00 | 14 | 1005.2 | |
| 20260509021336 | 98 | 0.0 | 0.0 | 0.00 | 0.00 | 0.00 | 14 | 1005.1 | |
| 20260509020316 | 99 | 217 | 1.0 | 4.0 | 0.00 | 0.00 | 0.00 | 13 | 1005.0 |
| 20260509015317 | 100 | 247 | 1.0 | 4.0 | 0.00 | 0.00 | 0.00 | 13 | 1005.0 |
| 20260509014316 | 101 | 218 | 2.0 | 5.0 | 0.00 | 0.00 | 0.00 | 12 | 1005.0 |
| 20260509013317 | 101 | 225 | 3.0 | 8.0 | 0.00 | 0.00 | 0.00 | 12 | 1005.0 |
| 20260509012316 | 102 | 222 | 4.0 | 7.0 | 0.00 | 0.00 | 0.00 | 11 | 1005.0 |
| 20260509011317 | 102 | 238 | 2.0 | 7.0 | 0.00 | 0.00 | 0.00 | 11 | 1005.1 |
| 20260509010317 | 103 | 225 | 4.0 | 7.0 | 0.00 | 0.00 | 0.00 | 11 | 1005.1 |
| 20260509005317 | 103 | 232 | 5.0 | 8.0 | 0.00 | 0.00 | 0.00 | 11 | 1005.1 |
| 20260509004316 | 103 | 228 | 2.0 | 6.0 | 0.00 | 0.00 | 0.00 | 10 | 1005.2 |
| 20260509003317 | 102 | 254 | 5.0 | 6.0 | 0.00 | 0.00 | 0.00 | 11 | 1005.3 |
| 20260509002317 | 103 | 258 | 5.0 | 8.0 | 0.00 | 0.00 | 0.00 | 10 | 1005.3 |
| 20260509001317 | 103 | 261 | 4.0 | 7.0 | 0.00 | 0.00 | 0.00 | 11 | 1005.4 |
| 20260509000318 | 104 | 218 | 5.0 | 7.0 | 0.00 | 0.00 | 0.00 | 11 | 1005.4 |
| 20260508235317 | 103 | 247 | 5.0 | 7.0 | 0.00 | 0.00 | 0.00 | 11 | 1005.5 |
| 20260508234316 | 103 | 265 | 3.0 | 5.0 | 0.00 | 0.00 | 0.00 | 11 | 1005.5 |
| 20260508233317 | 103 | 258 | 5.0 | 6.0 | 0.00 | 0.00 | 0.00 | 12 | 1005.6 |
| 20260508232317 | 103 | 218 | 7.0 | 8.0 | 0.00 | 0.00 | 0.00 | 12 | 1005.7 |
| 20260508231317 | 103 | 251 | 7.0 | 9.0 | 0.00 | 0.00 | 0.00 | 12 | 1005.8 |
| 20260508230317 | 104 | 230 | 8.0 | 11.0 | 0.00 | 0.00 | 0.00 | 13 | 1005.9 |
| 20260508225316 | 104 | 225 | 6.0 | 9.0 | 0.00 | 0.00 | 0.00 | 12 | 1005.9 |
| 20260508224317 | 104 | 212 | 5.0 | 9.0 | 0.00 | 0.00 | 0.00 | 12 | 1006.0 |
| 20260508223317 | 103 | 233 | 8.0 | 10.0 | 0.00 | 0.00 | 0.00 | 13 | 1006.2 |
| 20260508222316 | 104 | 231 | 2.0 | 6.0 | 0.00 | 0.00 | 0.00 | 14 | 1006.3 |
| 20260508221317 | 102 | 240 | 4.0 | 9.0 | 0.00 | 0.00 | 0.00 | 14 | 1006.5 |
| 20260508220316 | 102 | 243 | 9.0 | 12.0 | 0.00 | 0.00 | 0.00 | 14 | 1006.7 |
| 20260508215317 | 103 | 244 | 6.0 | 8.0 | 0.00 | 0.00 | 0.00 | 14 | 1006.9 |
| 20260508214317 | 102 | 253 | 2.0 | 6.0 | 0.00 | 0.00 | 0.00 | 14 | 1007.1 |
| 20260508214017 | 102 | 261 | 6.0 | 9.0 | 0.00 | 0.00 | 0.00 | 14 | 1007.1 |
| 20260508213017 | 102 | 254 | 7.0 | 8.0 | 0.00 | 0.00 | 0.00 | 14 | 1007.2 |
| 20260508212417 | 101 | 244 | 5.0 | 6.0 | 0.00 | 0.00 | 0.00 | 15 | 1007.4 |
| 20260508211417 | 101 | 219 | 4.0 | 6.0 | 0.00 | 0.00 | 0.00 | 14 | 1007.6 |
| 20260508210417 | 101 | 256 | 6.0 | 9.0 | 0.00 | 0.00 | 0.00 | 15 | 1007.7 |
| 20260508205416 | 101 | 255 | 5.0 | 6.0 | 0.00 | 0.00 | 0.00 | 15 | 1007.8 |
| 20260508204417 | 100 | 277 | 6.0 | 7.0 | 0.00 | 0.00 | 0.00 | 16 | 1008.0 |
| 20260508203417 | 100 | 277 | 5.0 | 7.0 | 0.00 | 0.00 | 0.00 | 16 | 1008.1 |
| 20260508202416 | 100 | 251 | 7.0 | 9.0 | 0.00 | 0.00 | 0.00 | 15 | 1008.2 |
| 20260508201417 | 100 | 244 | 5.0 | 9.0 | 0.00 | 0.00 | 0.00 | 17 | 1008.3 |
| 20260508200417 | 99 | 218 | 6.0 | 7.0 | 0.00 | 0.00 | 0.00 | 16 | 1008.6 |
| 20260508195417 | 98 | 231 | 1.0 | 4.0 | 0.00 | 0.00 | 0.00 | 17 | 1008.7 |
| 20260508194417 | 98 | 225 | 5.0 | 8.0 | 0.00 | 0.00 | 0.00 | 18 | 1008.9 |
| 20260508193417 | 98 | 190 | 5.0 | 7.0 | 0.00 | 0.00 | 0.00 | 18 | 1008.9 |
| 20260508192417 | 99 | 197 | 5.0 | 7.0 | 0.00 | 0.00 | 0.00 | 18 | 1009.0 |
| 20260508191417 | 97 | 205 | 3.0 | 6.0 | 0.00 | 0.00 | 0.00 | 17 | 1009.1 |
| 20260508191118 | 97 | 264 | 5.0 | 7.0 | 0.00 | 0.00 | 0.00 | 17 | 1009.1 |
| 20260508190117 | 98 | 222 | 8.0 | 11.0 | 0.00 | 0.00 | 0.00 | 19 | 1009.2 |
| 20260508185117 | 97 | 187 | 5.0 | 6.0 | 0.00 | 0.00 | 0.00 | 20 | 1009.4 |
| 20260508184116 | 96 | 202 | 5.0 | 6.0 | 0.00 | 0.00 | 0.00 | 18 | 1009.5 |
| 20260508183117 | 96 | 231 | 7.0 | 8.0 | 0.00 | 0.00 | 0.00 | 18 | 1009.6 |
| 20260508182117 | 96 | 224 | 10.0 | 10.0 | 0.00 | 0.00 | 0.00 | 18 | 1009.7 |
| 20260508181417 | 95 | 238 | 3.0 | 7.0 | 0.00 | 0.00 | 0.00 | 19 | 1009.8 |
| 20260508180417 | 95 | 210 | 4.0 | 7.0 | 0.00 | 0.00 | 0.00 | 21 | 1009.9 |
| 20260508175417 | 94 | 210 | 3.0 | 7.0 | 0.00 | 0.00 | 0.00 | 19 | 1010.0 |
| 20260508174417 | 93 | 223 | 1.0 | 4.0 | 0.00 | 0.00 | 0.00 | 20 | 1010.1 |
| 20260508173417 | 93 | 212 | 5.0 | 7.0 | 0.00 | 0.00 | 0.00 | 23 | 1010.2 |
| 20260508172417 | 93 | 185 | 4.0 | 5.0 | 0.00 | 0.00 | 0.00 | 24 | 1010.2 |
| 20260508171417 | 91 | 197 | 3.0 | 7.0 | 0.00 | 0.00 | 0.00 | 24 | 1010.2 |
| 20260508170417 | 91 | 191 | 4.0 | 6.0 | 0.00 | 0.00 | 0.00 | 23 | 1010.3 |
| 20260508165417 | 90 | 216 | 5.0 | 7.0 | 0.00 | 0.00 | 0.00 | 25 | 1010.4 |
| 20260508164417 | 90 | 186 | 5.0 | 8.0 | 0.00 | 0.00 | 0.00 | 26 | 1010.4 |
| 20260508163417 | 88 | 167 | 7.0 | 10.0 | 0.00 | 0.00 | 0.00 | 28 | 1010.5 |